RYR10UB LPMA-LPPR
Flight info
| Callsign | RYR10UB |
|---|---|
| Flight time | N/A |
| Altitude | 34000 |
| Route | DEGUN DCT VABEM DCT ASMAR DCT DIRMA DCT ASMOV ASMOV3A/35 |
| Aircraft | B738/M-SDE2E3FGHIRWXY/LB1 |
Departure
| Time | N/A |
|---|---|
| Airport | Cristiano Ronaldo International Airport (LPMA) |
Arrival
| Time | 2026-05-03 20:36 |
|---|---|
| Airport | Francisco de Sá Carneiro Airport (LPPR) |
| Time | Latitude | Longitude | Altitude | Speed | Heading |
|---|---|---|---|---|---|
| 2026-05-03 20:15 | 40.29333 | -10.04888 | 21198 ft | 389 kts | 54° |
| 2026-05-03 20:15 | 40.30853 | -10.01984 | 20841 ft | 386 kts | 54° |
| 2026-05-03 20:15 | 40.32364 | -9.99097 | 20491 ft | 382 kts | 54° |
| 2026-05-03 20:15 | 40.33861 | -9.96232 | 20143 ft | 379 kts | 54° |
| 2026-05-03 20:16 | 40.35346 | -9.93390 | 19806 ft | 377 kts | 54° |
| 2026-05-03 20:16 | 40.36820 | -9.90566 | 19466 ft | 374 kts | 54° |
| 2026-05-03 20:16 | 40.38282 | -9.87764 | 19128 ft | 371 kts | 54° |
| 2026-05-03 20:16 | 40.39735 | -9.84976 | 18802 ft | 369 kts | 54° |
| 2026-05-03 20:17 | 40.41177 | -9.82206 | 18447 ft | 367 kts | 54° |
| 2026-05-03 20:17 | 40.42612 | -9.79450 | 18064 ft | 365 kts | 54° |
| 2026-05-03 20:17 | 40.44036 | -9.76709 | 17693 ft | 362 kts | 54° |
| 2026-05-03 20:17 | 40.45447 | -9.73993 | 17345 ft | 359 kts | 54° |
| 2026-05-03 20:18 | 40.46848 | -9.71292 | 17010 ft | 356 kts | 54° |
| 2026-05-03 20:18 | 40.48235 | -9.68617 | 16678 ft | 353 kts | 54° |
| 2026-05-03 20:18 | 40.49610 | -9.65963 | 16355 ft | 350 kts | 54° |
| 2026-05-03 20:18 | 40.50966 | -9.63342 | 16043 ft | 347 kts | 54° |
| 2026-05-03 20:19 | 40.52319 | -9.60726 | 15719 ft | 344 kts | 54° |
| 2026-05-03 20:19 | 40.53658 | -9.58134 | 15398 ft | 341 kts | 54° |
| 2026-05-03 20:19 | 40.54986 | -9.55561 | 15079 ft | 339 kts | 54° |
| 2026-05-03 20:19 | 40.56302 | -9.53011 | 14769 ft | 336 kts | 54° |
| 2026-05-03 20:20 | 40.57593 | -9.50507 | 14460 ft | 334 kts | 54° |
| 2026-05-03 20:20 | 40.58882 | -9.48003 | 14142 ft | 327 kts | 54° |
| 2026-05-03 20:20 | 40.60152 | -9.45534 | 13841 ft | 325 kts | 54° |
| 2026-05-03 20:20 | 40.61417 | -9.43075 | 13509 ft | 323 kts | 54° |
| 2026-05-03 20:21 | 40.62671 | -9.40635 | 13191 ft | 321 kts | 54° |
| 2026-05-03 20:21 | 40.63917 | -9.38208 | 12876 ft | 319 kts | 54° |
| 2026-05-03 20:21 | 40.65158 | -9.35789 | 12578 ft | 319 kts | 54° |
| 2026-05-03 20:21 | 40.66405 | -9.33356 | 12278 ft | 321 kts | 54° |
| 2026-05-03 20:22 | 40.67651 | -9.30925 | 11973 ft | 320 kts | 54° |
| 2026-05-03 20:22 | 40.68895 | -9.28493 | 11668 ft | 319 kts | 54° |
| 2026-05-03 20:22 | 40.70129 | -9.26080 | 11361 ft | 316 kts | 54° |
| 2026-05-03 20:22 | 40.71352 | -9.23687 | 11060 ft | 314 kts | 54° |
| 2026-05-03 20:23 | 40.72566 | -9.21308 | 10770 ft | 312 kts | 54° |
| 2026-05-03 20:23 | 40.73772 | -9.18943 | 10473 ft | 310 kts | 54° |
| 2026-05-03 20:23 | 40.74954 | -9.16624 | 10189 ft | 307 kts | 54° |
| 2026-05-03 20:23 | 40.76146 | -9.14285 | 10054 ft | 299 kts | 54° |
| 2026-05-03 20:24 | 40.77285 | -9.12045 | 9775 ft | 298 kts | 54° |
| 2026-05-03 20:24 | 40.78436 | -9.09784 | 9483 ft | 295 kts | 54° |
| 2026-05-03 20:24 | 40.79573 | -9.07543 | 9210 ft | 293 kts | 54° |
| 2026-05-03 20:24 | 40.80704 | -9.05317 | 8920 ft | 291 kts | 54° |
| 2026-05-03 20:25 | 40.81824 | -9.03111 | 8649 ft | 288 kts | 54° |
| 2026-05-03 20:25 | 40.82933 | -9.00925 | 8383 ft | 286 kts | 54° |
| 2026-05-03 20:25 | 40.84038 | -8.98747 | 8118 ft | 284 kts | 54° |
| 2026-05-03 20:25 | 40.85128 | -8.96594 | 7850 ft | 281 kts | 54° |
| 2026-05-03 20:26 | 40.86212 | -8.94453 | 7588 ft | 279 kts | 54° |
| 2026-05-03 20:26 | 40.87284 | -8.92332 | 7341 ft | 277 kts | 54° |
| 2026-05-03 20:26 | 40.88353 | -8.90218 | 7084 ft | 275 kts | 54° |
| 2026-05-03 20:26 | 40.89410 | -8.88125 | 6825 ft | 273 kts | 54° |
| 2026-05-03 20:27 | 40.90462 | -8.86041 | 6567 ft | 271 kts | 54° |
| 2026-05-03 20:27 | 40.91503 | -8.83976 | 6315 ft | 269 kts | 54° |
| 2026-05-03 20:27 | 40.92528 | -8.81946 | 6040 ft | 268 kts | 54° |
| 2026-05-03 20:27 | 40.93557 | -8.79904 | 5774 ft | 266 kts | 54° |
| 2026-05-03 20:28 | 40.94574 | -8.77882 | 5532 ft | 263 kts | 54° |
| 2026-05-03 20:28 | 40.95584 | -8.75875 | 5300 ft | 260 kts | 53° |
| 2026-05-03 20:28 | 40.96502 | -8.73863 | 5194 ft | 254 kts | 66° |
| 2026-05-03 20:28 | 40.96899 | -8.71618 | 5117 ft | 247 kts | 78° |
| 2026-05-03 20:29 | 40.97198 | -8.69416 | 5014 ft | 240 kts | 77° |
| 2026-05-03 20:29 | 40.97506 | -8.67275 | 4924 ft | 233 kts | 77° |
| 2026-05-03 20:29 | 40.97810 | -8.65216 | 4835 ft | 228 kts | 75° |
| 2026-05-03 20:29 | 40.98427 | -8.63347 | 4740 ft | 220 kts | 43° |
| 2026-05-03 20:30 | 40.99743 | -8.62451 | 4517 ft | 215 kts | 3° |
| 2026-05-03 20:30 | 41.01193 | -8.62578 | 4313 ft | 205 kts | 349° |
| 2026-05-03 20:30 | 41.02575 | -8.62893 | 4061 ft | 199 kts | 348° |
| 2026-05-03 20:30 | 41.03924 | -8.63161 | 3843 ft | 194 kts | 352° |
| 2026-05-03 20:31 | 41.05245 | -8.63380 | 3649 ft | 189 kts | 350° |
| 2026-05-03 20:31 | 41.06514 | -8.63632 | 3437 ft | 184 kts | 350° |
| 2026-05-03 20:31 | 41.07768 | -8.63876 | 3245 ft | 176 kts | 349° |
| 2026-05-03 20:31 | 41.08963 | -8.64137 | 3047 ft | 180 kts | 349° |
| 2026-05-03 20:32 | 41.10225 | -8.64416 | 2819 ft | 187 kts | 348° |
| 2026-05-03 20:32 | 41.11511 | -8.64718 | 2574 ft | 187 kts | 348° |
| 2026-05-03 20:32 | 41.12748 | -8.65016 | 2310 ft | 174 kts | 348° |
| 2026-05-03 20:32 | 41.13875 | -8.65294 | 2127 ft | 156 kts | 348° |
| 2026-05-03 20:33 | 41.14880 | -8.65545 | 1939 ft | 137 kts | 347° |
| 2026-05-03 20:33 | 41.15800 | -8.65774 | 1725 ft | 132 kts | 348° |
| 2026-05-03 20:33 | 41.16695 | -8.65969 | 1531 ft | 130 kts | 346° |
| 2026-05-03 20:33 | 41.17592 | -8.66239 | 1304 ft | 133 kts | 346° |
| 2026-05-03 20:34 | 41.18485 | -8.66491 | 1140 ft | 131 kts | 349° |
| 2026-05-03 20:34 | 41.19385 | -8.66707 | 976 ft | 130 kts | 349° |
| 2026-05-03 20:34 | 41.20271 | -8.66946 | 846 ft | 131 kts | 347° |
| 2026-05-03 20:34 | 41.21167 | -8.67184 | 712 ft | 132 kts | 351° |
| 2026-05-03 20:35 | 41.22069 | -8.67409 | 530 ft | 133 kts | 349° |
| 2026-05-03 20:35 | 41.22980 | -8.67646 | 321 ft | 132 kts | 348° |
| 2026-05-03 20:35 | 41.23835 | -8.67873 | 233 ft | 115 kts | 349° |
| 2026-05-03 20:35 | 41.24535 | -8.68056 | 206 ft | 86 kts | 349° |
| 2026-05-03 20:36 | 41.24991 | -8.68171 | 193 ft | 35 kts | 353° |
| 2026-05-03 20:36 | 41.25173 | -8.68151 | 182 ft | 19 kts | 16° |
| 2026-05-03 20:36 | 41.25265 | -8.68110 | 179 ft | 12 kts | 22° |
| 2026-05-03 20:36 | 41.25289 | -8.68030 | 180 ft | 10 kts | 132° |
| 2026-05-03 20:37 | 41.25227 | -8.68003 | 183 ft | 9 kts | 169° |
| 2026-05-03 20:37 | 41.25164 | -8.67986 | 187 ft | 9 kts | 167° |
| 2026-05-03 20:37 | 41.25084 | -8.67966 | 190 ft | 14 kts | 170° |
| 2026-05-03 20:37 | 41.24966 | -8.67936 | 193 ft | 20 kts | 169° |
| 2026-05-03 20:38 | 41.24840 | -8.67875 | 206 ft | 19 kts | 152° |
| 2026-05-03 20:38 | 41.24711 | -8.67812 | 213 ft | 21 kts | 168° |
| 2026-05-03 20:38 | 41.24575 | -8.67779 | 219 ft | 19 kts | 170° |
| 2026-05-03 20:38 | 41.24449 | -8.67747 | 222 ft | 18 kts | 168° |
| 2026-05-03 20:39 | 41.24329 | -8.67710 | 228 ft | 17 kts | 160° |
| 2026-05-03 20:39 | 41.24243 | -8.67605 | 238 ft | 17 kts | 141° |
| 2026-05-03 20:39 | 41.24140 | -8.67559 | 237 ft | 16 kts | 168° |
| 2026-05-03 20:39 | 41.24032 | -8.67529 | 237 ft | 16 kts | 167° |
| 2026-05-03 20:40 | 41.23928 | -8.67502 | 237 ft | 15 kts | 171° |
| 2026-05-03 20:40 | 41.23843 | -8.67481 | 238 ft | 11 kts | 166° |
| 2026-05-03 20:40 | 41.23827 | -8.67415 | 242 ft | 5 kts | 81° |
| 2026-05-03 20:40 | 41.23830 | -8.67393 | 243 ft | 2 kts | 79° |
| 2026-05-03 20:41 | 41.23831 | -8.67382 | 244 ft | 0 kts | 79° |
| 2026-05-03 20:46 | 41.23831 | -8.67381 | 243 ft | 0 kts | 78° |